N4390S KCMA-KVCV
Flight info
| Callsign | N4390S |
|---|---|
| Flight time | 0h 51m |
| Altitude | 7500 |
| Route | DCT FIM DCT PMD DCT |
| Aircraft | P28A/L-S/C |
Departure
| Time | 2026-05-05 15:20 |
|---|---|
| Airport | Camarillo International Airport (KCMA) |
Arrival
| Time | 2026-05-05 16:11 |
|---|---|
| Airport | Southern California Logistics Airport (KVCV) |
| Time | Latitude | Longitude | Altitude | Speed | Heading |
|---|---|---|---|---|---|
| 2026-05-05 14:57 | 34.21078 | -119.09364 | 66 ft | 0 kts | 0° |
| 2026-05-05 15:10 | 34.21090 | -119.09355 | 66 ft | 4 kts | 43° |
| 2026-05-05 15:11 | 34.21101 | -119.09296 | 67 ft | 9 kts | 88° |
| 2026-05-05 15:11 | 34.21099 | -119.09200 | 68 ft | 13 kts | 91° |
| 2026-05-05 15:11 | 34.21099 | -119.09083 | 69 ft | 15 kts | 93° |
| 2026-05-05 15:11 | 34.21099 | -119.08963 | 70 ft | 12 kts | 85° |
| 2026-05-05 15:12 | 34.21098 | -119.08850 | 71 ft | 14 kts | 92° |
| 2026-05-05 15:12 | 34.21096 | -119.08730 | 73 ft | 14 kts | 93° |
| 2026-05-05 15:12 | 34.21096 | -119.08606 | 74 ft | 14 kts | 89° |
| 2026-05-05 15:12 | 34.21093 | -119.08479 | 75 ft | 15 kts | 87° |
| 2026-05-05 15:13 | 34.21093 | -119.08344 | 76 ft | 16 kts | 92° |
| 2026-05-05 15:13 | 34.21092 | -119.08205 | 77 ft | 17 kts | 88° |
| 2026-05-05 15:13 | 34.21112 | -119.08126 | 78 ft | 3 kts | 351° |
| 2026-05-05 15:13 | 34.21127 | -119.08180 | 78 ft | 12 kts | 266° |
| 2026-05-05 15:14 | 34.21128 | -119.08321 | 76 ft | 18 kts | 269° |
| 2026-05-05 15:14 | 34.21183 | -119.08411 | 76 ft | 9 kts | 316° |
| 2026-05-05 15:14 | 34.21189 | -119.08419 | 76 ft | 0 kts | 315° |
| 2026-05-05 15:17 | 34.21190 | -119.08420 | 76 ft | 2 kts | 315° |
| 2026-05-05 15:17 | 34.21264 | -119.08463 | 76 ft | 15 kts | 359° |
| 2026-05-05 15:18 | 34.21282 | -119.08463 | 76 ft | 0 kts | 359° |
| 2026-05-05 15:19 | 34.21290 | -119.08463 | 76 ft | 6 kts | 2° |
| 2026-05-05 15:19 | 34.21369 | -119.08501 | 76 ft | 20 kts | 269° |
| 2026-05-05 15:20 | 34.21370 | -119.08904 | 92 ft | 70 kts | 272° |
| 2026-05-05 15:20 | 34.21369 | -119.09543 | 287 ft | 78 kts | 266° |
| 2026-05-05 15:20 | 34.21380 | -119.10232 | 485 ft | 86 kts | 272° |
| 2026-05-05 15:20 | 34.21397 | -119.10937 | 758 ft | 84 kts | 271° |
| 2026-05-05 15:21 | 34.21408 | -119.11640 | 1011 ft | 83 kts | 271° |
| 2026-05-05 15:21 | 34.21408 | -119.12331 | 1284 ft | 80 kts | 271° |
| 2026-05-05 15:21 | 34.21398 | -119.13002 | 1522 ft | 81 kts | 271° |
| 2026-05-05 15:21 | 34.21382 | -119.13666 | 1790 ft | 78 kts | 271° |
| 2026-05-05 15:22 | 34.21360 | -119.14336 | 2009 ft | 81 kts | 271° |
| 2026-05-05 15:22 | 34.21337 | -119.15007 | 2224 ft | 83 kts | 271° |
| 2026-05-05 15:22 | 34.21324 | -119.15689 | 2479 ft | 78 kts | 278° |
| 2026-05-05 15:22 | 34.21621 | -119.16266 | 2618 ft | 86 kts | 325° |
| 2026-05-05 15:23 | 34.22168 | -119.16372 | 2883 ft | 83 kts | 6° |
| 2026-05-05 15:23 | 34.22709 | -119.16042 | 3111 ft | 84 kts | 26° |
| 2026-05-05 15:23 | 34.23188 | -119.15653 | 3336 ft | 85 kts | 28° |
| 2026-05-05 15:23 | 34.23660 | -119.15242 | 3600 ft | 82 kts | 29° |
| 2026-05-05 15:24 | 34.24121 | -119.14819 | 3816 ft | 84 kts | 30° |
| 2026-05-05 15:24 | 34.24573 | -119.14405 | 4061 ft | 82 kts | 29° |
| 2026-05-05 15:24 | 34.24953 | -119.13841 | 4263 ft | 90 kts | 57° |
| 2026-05-05 15:24 | 34.25201 | -119.13182 | 4526 ft | 86 kts | 60° |
| 2026-05-05 15:25 | 34.25441 | -119.12490 | 4731 ft | 89 kts | 60° |
| 2026-05-05 15:25 | 34.25672 | -119.11822 | 4951 ft | 89 kts | 60° |
| 2026-05-05 15:25 | 34.25904 | -119.11128 | 5183 ft | 88 kts | 63° |
| 2026-05-05 15:25 | 34.26123 | -119.10438 | 5387 ft | 89 kts | 62° |
| 2026-05-05 15:26 | 34.26341 | -119.09748 | 5620 ft | 87 kts | 62° |
| 2026-05-05 15:26 | 34.26560 | -119.09063 | 5825 ft | 88 kts | 62° |
| 2026-05-05 15:26 | 34.26778 | -119.08379 | 6035 ft | 88 kts | 62° |
| 2026-05-05 15:26 | 34.27004 | -119.07692 | 6241 ft | 88 kts | 61° |
| 2026-05-05 15:27 | 34.27243 | -119.07016 | 6434 ft | 89 kts | 61° |
| 2026-05-05 15:27 | 34.27488 | -119.06331 | 6641 ft | 87 kts | 62° |
| 2026-05-05 15:27 | 34.27744 | -119.05655 | 6734 ft | 91 kts | 60° |
| 2026-05-05 15:27 | 34.28009 | -119.04989 | 6909 ft | 87 kts | 59° |
| 2026-05-05 15:28 | 34.28287 | -119.04289 | 7015 ft | 94 kts | 59° |
| 2026-05-05 15:28 | 34.28590 | -119.03522 | 7045 ft | 106 kts | 60° |
| 2026-05-05 15:28 | 34.28922 | -119.02689 | 7113 ft | 110 kts | 60° |
| 2026-05-05 15:28 | 34.29281 | -119.01826 | 7092 ft | 118 kts | 58° |
| 2026-05-05 15:29 | 34.29707 | -119.00941 | 7049 ft | 123 kts | 53° |
| 2026-05-05 15:29 | 34.30170 | -119.00056 | 7013 ft | 126 kts | 54° |
| 2026-05-05 15:29 | 34.30639 | -118.99161 | 6967 ft | 127 kts | 53° |
| 2026-05-05 15:29 | 34.31111 | -118.98270 | 6953 ft | 124 kts | 53° |
| 2026-05-05 15:30 | 34.31575 | -118.97405 | 6947 ft | 122 kts | 53° |
| 2026-05-05 15:30 | 34.32038 | -118.96548 | 6952 ft | 121 kts | 53° |
| 2026-05-05 15:30 | 34.32485 | -118.95684 | 6940 ft | 121 kts | 56° |
| 2026-05-05 15:30 | 34.32894 | -118.94822 | 6978 ft | 118 kts | 56° |
| 2026-05-05 15:31 | 34.33286 | -118.93932 | 6941 ft | 121 kts | 62° |
| 2026-05-05 15:31 | 34.33622 | -118.93004 | 6967 ft | 119 kts | 61° |
| 2026-05-05 15:31 | 34.33976 | -118.92090 | 6947 ft | 123 kts | 59° |
| 2026-05-05 15:31 | 34.34356 | -118.91120 | 6929 ft | 128 kts | 60° |
| 2026-05-05 15:32 | 34.34731 | -118.90160 | 7001 ft | 125 kts | 60° |
| 2026-05-05 15:32 | 34.35107 | -118.89195 | 7020 ft | 128 kts | 60° |
| 2026-05-05 15:32 | 34.35502 | -118.88200 | 6979 ft | 132 kts | 60° |
| 2026-05-05 15:32 | 34.35873 | -118.87196 | 7031 ft | 130 kts | 63° |
| 2026-05-05 15:33 | 34.36209 | -118.86174 | 7002 ft | 133 kts | 65° |
| 2026-05-05 15:33 | 34.36530 | -118.85112 | 6962 ft | 136 kts | 69° |
| 2026-05-05 15:33 | 34.36806 | -118.84011 | 6926 ft | 137 kts | 71° |
| 2026-05-05 15:33 | 34.37044 | -118.82881 | 6872 ft | 137 kts | 71° |
| 2026-05-05 15:34 | 34.37282 | -118.81799 | 6900 ft | 134 kts | 68° |
| 2026-05-05 15:34 | 34.37663 | -118.80793 | 6960 ft | 129 kts | 60° |
| 2026-05-05 15:34 | 34.38047 | -118.79813 | 6980 ft | 129 kts | 60° |
| 2026-05-05 15:34 | 34.38428 | -118.78835 | 7006 ft | 129 kts | 60° |
| 2026-05-05 15:35 | 34.38808 | -118.77833 | 7027 ft | 130 kts | 60° |
| 2026-05-05 15:35 | 34.39180 | -118.76840 | 7052 ft | 130 kts | 61° |
| 2026-05-05 15:35 | 34.39550 | -118.75841 | 7073 ft | 130 kts | 61° |
| 2026-05-05 15:35 | 34.39920 | -118.74834 | 7039 ft | 134 kts | 62° |
| 2026-05-05 15:36 | 34.40299 | -118.73779 | 6963 ft | 138 kts | 63° |
| 2026-05-05 15:36 | 34.40667 | -118.72726 | 6997 ft | 134 kts | 62° |
| 2026-05-05 15:36 | 34.41028 | -118.71684 | 6934 ft | 137 kts | 63° |
| 2026-05-05 15:36 | 34.41397 | -118.70619 | 6932 ft | 134 kts | 62° |
| 2026-05-05 15:37 | 34.41761 | -118.69583 | 6941 ft | 132 kts | 63° |
| 2026-05-05 15:37 | 34.42120 | -118.68546 | 6937 ft | 132 kts | 63° |
| 2026-05-05 15:37 | 34.42463 | -118.67551 | 7015 ft | 129 kts | 62° |
| 2026-05-05 15:37 | 34.42823 | -118.66518 | 6959 ft | 133 kts | 63° |
| 2026-05-05 15:38 | 34.43169 | -118.65516 | 7035 ft | 129 kts | 62° |
| 2026-05-05 15:38 | 34.43527 | -118.64487 | 7001 ft | 133 kts | 63° |
| 2026-05-05 15:38 | 34.43878 | -118.63466 | 7045 ft | 130 kts | 63° |
| 2026-05-05 15:38 | 34.44226 | -118.62453 | 7037 ft | 132 kts | 63° |
| 2026-05-05 15:39 | 34.44580 | -118.61422 | 7053 ft | 132 kts | 63° |
| 2026-05-05 15:39 | 34.44933 | -118.60388 | 7066 ft | 132 kts | 63° |
| 2026-05-05 15:39 | 34.45284 | -118.59357 | 7081 ft | 132 kts | 63° |
| 2026-05-05 15:39 | 34.45640 | -118.58340 | 7082 ft | 133 kts | 62° |
| 2026-05-05 15:40 | 34.46002 | -118.57305 | 7047 ft | 135 kts | 63° |
| 2026-05-05 15:40 | 34.46361 | -118.56259 | 7056 ft | 134 kts | 63° |
| 2026-05-05 15:40 | 34.46719 | -118.55203 | 7036 ft | 135 kts | 63° |
| 2026-05-05 15:40 | 34.47082 | -118.54161 | 7033 ft | 134 kts | 62° |
| 2026-05-05 15:41 | 34.47440 | -118.53123 | 7022 ft | 134 kts | 62° |
| 2026-05-05 15:41 | 34.47797 | -118.52074 | 7002 ft | 135 kts | 63° |
| 2026-05-05 15:41 | 34.48159 | -118.51026 | 6999 ft | 134 kts | 62° |
| 2026-05-05 15:41 | 34.48525 | -118.49976 | 6978 ft | 135 kts | 62° |
| 2026-05-05 15:42 | 34.48889 | -118.48920 | 6972 ft | 135 kts | 63° |
| 2026-05-05 15:42 | 34.49243 | -118.47876 | 6965 ft | 135 kts | 63° |
| 2026-05-05 15:42 | 34.49606 | -118.46812 | 6949 ft | 135 kts | 62° |
| 2026-05-05 15:42 | 34.49971 | -118.45761 | 6963 ft | 134 kts | 63° |
| 2026-05-05 15:43 | 34.50322 | -118.44737 | 6993 ft | 132 kts | 62° |
| 2026-05-05 15:43 | 34.50679 | -118.43693 | 6974 ft | 134 kts | 63° |
| 2026-05-05 15:43 | 34.51035 | -118.42643 | 6994 ft | 133 kts | 63° |
| 2026-05-05 15:43 | 34.51386 | -118.41602 | 6992 ft | 134 kts | 63° |
| 2026-05-05 15:44 | 34.51738 | -118.40562 | 6996 ft | 134 kts | 62° |
| 2026-05-05 15:44 | 34.52101 | -118.39523 | 6997 ft | 134 kts | 62° |
| 2026-05-05 15:44 | 34.52466 | -118.38468 | 6999 ft | 134 kts | 62° |
| 2026-05-05 15:44 | 34.52821 | -118.37432 | 7009 ft | 134 kts | 62° |
| 2026-05-05 15:45 | 34.53182 | -118.36375 | 6988 ft | 136 kts | 62° |
| 2026-05-05 15:45 | 34.53543 | -118.35308 | 6982 ft | 135 kts | 63° |
| 2026-05-05 15:45 | 34.53893 | -118.34266 | 7011 ft | 133 kts | 63° |
| 2026-05-05 15:45 | 34.54247 | -118.33218 | 7044 ft | 131 kts | 63° |
| 2026-05-05 15:46 | 34.54580 | -118.32226 | 7195 ft | 123 kts | 63° |
| 2026-05-05 15:46 | 34.54903 | -118.31287 | 7324 ft | 119 kts | 61° |
| 2026-05-05 15:46 | 34.55214 | -118.30405 | 7514 ft | 112 kts | 60° |
| 2026-05-05 15:46 | 34.55523 | -118.29544 | 7656 ft | 110 kts | 60° |
| 2026-05-05 15:47 | 34.55814 | -118.28731 | 7891 ft | 100 kts | 60° |
| 2026-05-05 15:47 | 34.55996 | -118.28220 | 8021 ft | 98 kts | 59° |
| 2026-05-05 15:47 | 34.56363 | -118.27202 | 8220 ft | 99 kts | 59° |
| 2026-05-05 15:47 | 34.56640 | -118.26428 | 8378 ft | 98 kts | 60° |
| 2026-05-05 15:48 | 34.56897 | -118.25703 | 8587 ft | 93 kts | 59° |
| 2026-05-05 15:48 | 34.57157 | -118.24975 | 8738 ft | 94 kts | 60° |
| 2026-05-05 15:48 | 34.57420 | -118.24235 | 8900 ft | 94 kts | 59° |
| 2026-05-05 15:48 | 34.57664 | -118.23539 | 9096 ft | 90 kts | 59° |
| 2026-05-05 15:49 | 34.57913 | -118.22840 | 9258 ft | 90 kts | 59° |
| 2026-05-05 15:49 | 34.58158 | -118.22146 | 9419 ft | 90 kts | 59° |
| 2026-05-05 15:49 | 34.58413 | -118.21424 | 9501 ft | 98 kts | 60° |
| 2026-05-05 15:49 | 34.58693 | -118.20618 | 9548 ft | 106 kts | 62° |
| 2026-05-05 15:50 | 34.58971 | -118.19791 | 9605 ft | 112 kts | 63° |
| 2026-05-05 15:50 | 34.59273 | -118.18893 | 9617 ft | 118 kts | 63° |
| 2026-05-05 15:50 | 34.59599 | -118.17914 | 9539 ft | 128 kts | 64° |
| 2026-05-05 15:50 | 34.59935 | -118.16894 | 9484 ft | 132 kts | 64° |
| 2026-05-05 15:51 | 34.60271 | -118.15857 | 9503 ft | 130 kts | 65° |
| 2026-05-05 15:51 | 34.60596 | -118.14840 | 9513 ft | 128 kts | 65° |
| 2026-05-05 15:51 | 34.60915 | -118.13841 | 9530 ft | 128 kts | 65° |
| 2026-05-05 15:51 | 34.61241 | -118.12817 | 9512 ft | 130 kts | 65° |
| 2026-05-05 15:52 | 34.61565 | -118.11797 | 9527 ft | 129 kts | 65° |
| 2026-05-05 15:52 | 34.61887 | -118.10783 | 9516 ft | 130 kts | 65° |
| 2026-05-05 15:52 | 34.62210 | -118.09762 | 9523 ft | 130 kts | 65° |
| 2026-05-05 15:52 | 34.62513 | -118.08705 | 9466 ft | 134 kts | 74° |
| 2026-05-05 15:53 | 34.62784 | -118.07639 | 9459 ft | 132 kts | 69° |
| 2026-05-05 15:53 | 34.62883 | -118.06514 | 9417 ft | 137 kts | 86° |
| 2026-05-05 15:53 | 34.62808 | -118.05371 | 9430 ft | 136 kts | 95° |
| 2026-05-05 15:53 | 34.62676 | -118.04234 | 9433 ft | 135 kts | 94° |
| 2026-05-05 15:54 | 34.62557 | -118.03114 | 9428 ft | 135 kts | 93° |
| 2026-05-05 15:54 | 34.62453 | -118.01990 | 9438 ft | 133 kts | 92° |
| 2026-05-05 15:54 | 34.62362 | -118.00872 | 9439 ft | 133 kts | 91° |
| 2026-05-05 15:54 | 34.62281 | -117.99747 | 9426 ft | 133 kts | 91° |
| 2026-05-05 15:55 | 34.62207 | -117.98627 | 9428 ft | 133 kts | 90° |
| 2026-05-05 15:55 | 34.62141 | -117.97501 | 9417 ft | 134 kts | 90° |
| 2026-05-05 15:55 | 34.62080 | -117.96376 | 9419 ft | 133 kts | 90° |
| 2026-05-05 15:55 | 34.62022 | -117.95245 | 9408 ft | 134 kts | 90° |
| 2026-05-05 15:56 | 34.61968 | -117.94115 | 9404 ft | 134 kts | 89° |
| 2026-05-05 15:56 | 34.61916 | -117.92983 | 9408 ft | 134 kts | 89° |
| 2026-05-05 15:56 | 34.61867 | -117.91852 | 9405 ft | 134 kts | 89° |
| 2026-05-05 15:56 | 34.61819 | -117.90730 | 9402 ft | 134 kts | 89° |
| 2026-05-05 15:57 | 34.61769 | -117.89600 | 9392 ft | 135 kts | 90° |
| 2026-05-05 15:57 | 34.61715 | -117.88454 | 9400 ft | 134 kts | 90° |
| 2026-05-05 15:57 | 34.61661 | -117.87327 | 9393 ft | 135 kts | 90° |
| 2026-05-05 15:57 | 34.61606 | -117.86194 | 9397 ft | 134 kts | 90° |
| 2026-05-05 15:58 | 34.61539 | -117.85088 | 9354 ft | 129 kts | 92° |
| 2026-05-05 15:58 | 34.61435 | -117.84027 | 9207 ft | 122 kts | 96° |
| 2026-05-05 15:58 | 34.61294 | -117.83018 | 9015 ft | 120 kts | 98° |
| 2026-05-05 15:58 | 34.61140 | -117.82017 | 8763 ft | 122 kts | 94° |
| 2026-05-05 15:59 | 34.61128 | -117.81000 | 8556 ft | 120 kts | 87° |
| 2026-05-05 15:59 | 34.61112 | -117.80006 | 8426 ft | 115 kts | 89° |
| 2026-05-05 15:59 | 34.61075 | -117.79029 | 8191 ft | 120 kts | 91° |
| 2026-05-05 15:59 | 34.61010 | -117.78034 | 8037 ft | 117 kts | 93° |
| 2026-05-05 16:00 | 34.60945 | -117.77040 | 7812 ft | 120 kts | 87° |
| 2026-05-05 16:00 | 34.60936 | -117.76024 | 7633 ft | 118 kts | 89° |
| 2026-05-05 16:00 | 34.60897 | -117.75029 | 7443 ft | 119 kts | 91° |
| 2026-05-05 16:00 | 34.60865 | -117.74015 | 7253 ft | 119 kts | 88° |
| 2026-05-05 16:01 | 34.60845 | -117.73013 | 7073 ft | 119 kts | 90° |
| 2026-05-05 16:01 | 34.60813 | -117.72011 | 6903 ft | 118 kts | 88° |
| 2026-05-05 16:01 | 34.60767 | -117.71010 | 6716 ft | 119 kts | 91° |
| 2026-05-05 16:01 | 34.60711 | -117.70007 | 6535 ft | 119 kts | 91° |
| 2026-05-05 16:02 | 34.60660 | -117.69020 | 6380 ft | 118 kts | 91° |
| 2026-05-05 16:02 | 34.60610 | -117.68014 | 6193 ft | 118 kts | 91° |
| 2026-05-05 16:02 | 34.60563 | -117.67020 | 6018 ft | 119 kts | 91° |
| 2026-05-05 16:02 | 34.60522 | -117.66029 | 5915 ft | 117 kts | 90° |
| 2026-05-05 16:03 | 34.60489 | -117.65048 | 5858 ft | 121 kts | 90° |
| 2026-05-05 16:03 | 34.60449 | -117.64018 | 5821 ft | 120 kts | 91° |
| 2026-05-05 16:03 | 34.60413 | -117.63032 | 5886 ft | 117 kts | 90° |
| 2026-05-05 16:03 | 34.60382 | -117.62035 | 5938 ft | 117 kts | 90° |
| 2026-05-05 16:04 | 34.60349 | -117.61044 | 6007 ft | 119 kts | 89° |
| 2026-05-05 16:04 | 34.60319 | -117.60017 | 6059 ft | 125 kts | 89° |
| 2026-05-05 16:04 | 34.60284 | -117.58950 | 6086 ft | 130 kts | 90° |
| 2026-05-05 16:04 | 34.60242 | -117.57818 | 6071 ft | 136 kts | 91° |
| 2026-05-05 16:05 | 34.60197 | -117.56664 | 6066 ft | 138 kts | 91° |
| 2026-05-05 16:05 | 34.60150 | -117.55497 | 6068 ft | 139 kts | 91° |
| 2026-05-05 16:05 | 34.60101 | -117.54322 | 6040 ft | 142 kts | 91° |
| 2026-05-05 16:05 | 34.60181 | -117.53147 | 6010 ft | 135 kts | 75° |
| 2026-05-05 16:06 | 34.60493 | -117.52106 | 5963 ft | 131 kts | 62° |
| 2026-05-05 16:06 | 34.60913 | -117.51117 | 5927 ft | 128 kts | 56° |
| 2026-05-05 16:06 | 34.61361 | -117.50198 | 5862 ft | 127 kts | 54° |
| 2026-05-05 16:06 | 34.61849 | -117.49302 | 5741 ft | 126 kts | 52° |
| 2026-05-05 16:07 | 34.62335 | -117.48407 | 5580 ft | 129 kts | 53° |
| 2026-05-05 16:07 | 34.62824 | -117.47510 | 5458 ft | 126 kts | 52° |
| 2026-05-05 16:07 | 34.63317 | -117.46616 | 5308 ft | 126 kts | 52° |
| 2026-05-05 16:07 | 34.63746 | -117.45694 | 5088 ft | 127 kts | 69° |
| 2026-05-05 16:08 | 34.63973 | -117.44666 | 4839 ft | 127 kts | 77° |
| 2026-05-05 16:08 | 34.64116 | -117.43624 | 4520 ft | 126 kts | 84° |
| 2026-05-05 16:08 | 34.64185 | -117.42585 | 4244 ft | 122 kts | 89° |
| 2026-05-05 16:08 | 34.64227 | -117.41562 | 3962 ft | 119 kts | 91° |
| 2026-05-05 16:09 | 34.64243 | -117.40606 | 3744 ft | 113 kts | 94° |
| 2026-05-05 16:09 | 34.64229 | -117.39676 | 3507 ft | 111 kts | 100° |
| 2026-05-05 16:09 | 34.63994 | -117.38837 | 3308 ft | 92 kts | 148° |
| 2026-05-05 16:09 | 34.63467 | -117.38664 | 3153 ft | 74 kts | 187° |
| 2026-05-05 16:10 | 34.62962 | -117.38693 | 3064 ft | 72 kts | 191° |
| 2026-05-05 16:10 | 34.62450 | -117.38680 | 2978 ft | 72 kts | 189° |
| 2026-05-05 16:10 | 34.61962 | -117.38671 | 2915 ft | 65 kts | 189° |
| 2026-05-05 16:10 | 34.61534 | -117.38666 | 2868 ft | 60 kts | 187° |
| 2026-05-05 16:11 | 34.61104 | -117.38663 | 2842 ft | 60 kts | 186° |
| 2026-05-05 16:11 | 34.60321 | -117.38660 | 2841 ft | 32 kts | 178° |
| 2026-05-05 16:12 | 34.60103 | -117.38660 | 2845 ft | 29 kts | 184° |
| 2026-05-05 16:12 | 34.59718 | -117.38656 | 2852 ft | 26 kts | 179° |
| 2026-05-05 16:13 | 34.59479 | -117.38396 | 2856 ft | 22 kts | 125° |
| 2026-05-05 16:13 | 34.59365 | -117.38251 | 2859 ft | 25 kts | 136° |
| 2026-05-05 16:13 | 34.59237 | -117.38094 | 2863 ft | 27 kts | 135° |
| 2026-05-05 16:14 | 34.58998 | -117.37800 | 2867 ft | 14 kts | 133° |
| 2026-05-05 16:14 | 34.58933 | -117.37692 | 2868 ft | 7 kts | 117° |
| 2026-05-05 16:15 | 34.58888 | -117.37460 | 2868 ft | 7 kts | 137° |
| 2026-05-05 16:15 | 34.58866 | -117.37449 | 2868 ft | 0 kts | 217° |